sensor_id;sensor_type;location;lat;lon;timestamp;P1;durP1;ratioP1;P2;durP2;ratioP2
65597;SDS011;52267;51.984;20.956;2023-04-10T00:00:02;22.90;;;11.30;;
65597;SDS011;52267;51.984;20.956;2023-04-10T00:02:29;19.30;;;11.30;;
65597;SDS011;52267;51.984;20.956;2023-04-10T00:04:56;15.90;;;11.60;;
65597;SDS011;52267;51.984;20.956;2023-04-10T00:07:24;18.70;;;11.90;;
65597;SDS011;52267;51.984;20.956;2023-04-10T00:09:52;22.30;;;13.60;;
65597;SDS011;52267;51.984;20.956;2023-04-10T00:12:19;20.10;;;12.00;;
65597;SDS011;52267;51.984;20.956;2023-04-10T00:14:47;21.30;;;13.50;;
65597;SDS011;52267;51.984;20.956;2023-04-10T00:17:14;24.10;;;13.40;;
65597;SDS011;52267;51.984;20.956;2023-04-10T00:19:41;19.80;;;13.30;;
65597;SDS011;52267;51.984;20.956;2023-04-10T00:22:08;24.50;;;13.20;;
65597;SDS011;52267;51.984;20.956;2023-04-10T00:24:35;24.80;;;15.00;;
65597;SDS011;52267;51.984;20.956;2023-04-10T00:27:02;20.80;;;13.80;;
65597;SDS011;52267;51.984;20.956;2023-04-10T00:29:29;24.20;;;14.40;;
65597;SDS011;52267;51.984;20.956;2023-04-10T00:31:56;24.10;;;14.50;;
65597;SDS011;52267;51.984;20.956;2023-04-10T00:34:24;24.50;;;15.80;;
65597;SDS011;52267;51.984;20.956;2023-04-10T00:36:51;24.70;;;14.50;;
65597;SDS011;52267;51.984;20.956;2023-04-10T00:39:18;23.80;;;15.60;;
65597;SDS011;52267;51.984;20.956;2023-04-10T00:41:45;21.80;;;13.80;;
65597;SDS011;52267;51.984;20.956;2023-04-10T00:44:12;22.30;;;14.00;;
65597;SDS011;52267;51.984;20.956;2023-04-10T00:46:40;23.70;;;14.20;;
65597;SDS011;52267;51.984;20.956;2023-04-10T00:49:07;19.80;;;12.10;;
65597;SDS011;52267;51.984;20.956;2023-04-10T00:51:35;22.70;;;14.60;;
65597;SDS011;52267;51.984;20.956;2023-04-10T00:54:03;20.80;;;12.70;;
65597;SDS011;52267;51.984;20.956;2023-04-10T00:56:30;19.70;;;11.70;;
65597;SDS011;52267;51.984;20.956;2023-04-10T00:58:58;20.00;;;12.40;;
65597;SDS011;52267;51.984;20.956;2023-04-10T01:01:25;25.20;;;13.80;;
65597;SDS011;52267;51.984;20.956;2023-04-10T01:03:52;22.70;;;13.40;;
65597;SDS011;52267;51.984;20.956;2023-04-10T01:15:05;21.70;;;13.80;;
65597;SDS011;52267;51.984;20.956;2023-04-10T01:18:03;23.70;;;13.90;;
65597;SDS011;52267;51.984;20.956;2023-04-10T01:20:38;32.50;;;18.00;;
65597;SDS011;52267;51.984;20.956;2023-04-10T01:26:14;25.00;;;15.10;;
65597;SDS011;52267;51.984;20.956;2023-04-10T01:29:13;24.80;;;14.20;;
65597;SDS011;52267;51.984;20.956;2023-04-10T01:31:49;23.80;;;13.90;;
65597;SDS011;52267;51.984;20.956;2023-04-10T01:34:23;22.50;;;14.50;;
65597;SDS011;52267;51.984;20.956;2023-04-10T01:39:29;25.30;;;14.60;;
65597;SDS011;52267;51.984;20.956;2023-04-10T01:41:59;24.30;;;13.50;;
65597;SDS011;52267;51.984;20.956;2023-04-10T01:44:28;28.40;;;13.80;;
65597;SDS011;52267;51.984;20.956;2023-04-10T01:46:56;28.40;;;14.40;;
65597;SDS011;52267;51.984;20.956;2023-04-10T01:49:26;27.40;;;14.80;;
65597;SDS011;52267;51.984;20.956;2023-04-10T01:51:55;26.20;;;16.50;;
65597;SDS011;52267;51.984;20.956;2023-04-10T01:54:26;24.30;;;14.30;;
65597;SDS011;52267;51.984;20.956;2023-04-10T01:56:54;34.30;;;17.10;;
65597;SDS011;52267;51.984;20.956;2023-04-10T01:59:22;31.60;;;16.70;;
65597;SDS011;52267;51.984;20.956;2023-04-10T02:01:58;30.60;;;17.20;;
65597;SDS011;52267;51.984;20.956;2023-04-10T02:04:26;35.10;;;19.20;;
65597;SDS011;52267;51.984;20.956;2023-04-10T02:07:13;40.70;;;18.90;;
65597;SDS011;52267;51.984;20.956;2023-04-10T02:10:03;37.50;;;20.10;;
65597;SDS011;52267;51.984;20.956;2023-04-10T02:12:48;33.70;;;17.70;;
65597;SDS011;52267;51.984;20.956;2023-04-10T02:15:22;38.70;;;19.30;;
65597;SDS011;52267;51.984;20.956;2023-04-10T02:17:53;34.00;;;17.80;;
65597;SDS011;52267;51.984;20.956;2023-04-10T02:20:21;33.40;;;17.90;;
65597;SDS011;52267;51.984;20.956;2023-04-10T02:22:49;33.10;;;18.50;;
65597;SDS011;52267;51.984;20.956;2023-04-10T02:25:17;35.50;;;19.20;;
65597;SDS011;52267;51.984;20.956;2023-04-10T02:27:44;34.70;;;19.20;;
65597;SDS011;52267;51.984;20.956;2023-04-10T02:30:11;33.50;;;18.40;;
65597;SDS011;52267;51.984;20.956;2023-04-10T02:32:38;43.90;;;19.80;;
65597;SDS011;52267;51.984;20.956;2023-04-10T02:35:06;66.80;;;23.00;;
65597;SDS011;52267;51.984;20.956;2023-04-10T02:37:33;38.90;;;18.40;;
65597;SDS011;52267;51.984;20.956;2023-04-10T02:40:01;40.60;;;21.60;;
65597;SDS011;52267;51.984;20.956;2023-04-10T02:42:29;38.50;;;19.30;;
65597;SDS011;52267;51.984;20.956;2023-04-10T02:44:56;36.90;;;20.50;;
65597;SDS011;52267;51.984;20.956;2023-04-10T02:47:23;44.00;;;21.80;;
65597;SDS011;52267;51.984;20.956;2023-04-10T02:49:50;36.00;;;18.90;;
65597;SDS011;52267;51.984;20.956;2023-04-10T02:52:17;37.70;;;20.00;;
65597;SDS011;52267;51.984;20.956;2023-04-10T02:54:44;33.40;;;17.80;;
65597;SDS011;52267;51.984;20.956;2023-04-10T02:57:11;31.70;;;18.20;;
65597;SDS011;52267;51.984;20.956;2023-04-10T02:59:38;32.40;;;17.20;;
65597;SDS011;52267;51.984;20.956;2023-04-10T03:02:06;44.50;;;18.80;;
65597;SDS011;52267;51.984;20.956;2023-04-10T03:04:33;36.70;;;18.90;;
65597;SDS011;52267;51.984;20.956;2023-04-10T03:07:00;34.30;;;18.80;;
65597;SDS011;52267;51.984;20.956;2023-04-10T03:09:27;33.90;;;18.80;;
65597;SDS011;52267;51.984;20.956;2023-04-10T03:11:54;33.10;;;18.50;;
65597;SDS011;52267;51.984;20.956;2023-04-10T03:14:21;29.40;;;17.90;;
65597;SDS011;52267;51.984;20.956;2023-04-10T03:16:49;26.90;;;16.70;;
65597;SDS011;52267;51.984;20.956;2023-04-10T03:19:16;31.20;;;17.10;;
65597;SDS011;52267;51.984;20.956;2023-04-10T03:21:46;33.60;;;17.90;;
65597;SDS011;52267;51.984;20.956;2023-04-10T03:24:13;35.50;;;19.20;;
65597;SDS011;52267;51.984;20.956;2023-04-10T03:26:40;31.90;;;18.10;;
65597;SDS011;52267;51.984;20.956;2023-04-10T03:29:07;30.30;;;18.00;;
65597;SDS011;52267;51.984;20.956;2023-04-10T03:31:34;34.60;;;18.70;;
65597;SDS011;52267;51.984;20.956;2023-04-10T03:34:01;32.00;;;19.70;;
65597;SDS011;52267;51.984;20.956;2023-04-10T03:36:28;31.00;;;16.10;;
65597;SDS011;52267;51.984;20.956;2023-04-10T03:38:55;29.70;;;18.30;;
65597;SDS011;52267;51.984;20.956;2023-04-10T03:41:22;29.30;;;17.20;;
65597;SDS011;52267;51.984;20.956;2023-04-10T03:43:50;24.50;;;14.60;;
65597;SDS011;52267;51.984;20.956;2023-04-10T03:46:17;29.50;;;17.10;;
65597;SDS011;52267;51.984;20.956;2023-04-10T03:48:44;26.40;;;16.10;;
65597;SDS011;52267;51.984;20.956;2023-04-10T03:51:11;28.80;;;17.40;;
65597;SDS011;52267;51.984;20.956;2023-04-10T03:53:38;30.40;;;16.80;;
65597;SDS011;52267;51.984;20.956;2023-04-10T03:56:06;27.00;;;16.40;;
65597;SDS011;52267;51.984;20.956;2023-04-10T03:58:34;25.50;;;15.80;;
65597;SDS011;52267;51.984;20.956;2023-04-10T04:01:01;26.80;;;16.60;;
65597;SDS011;52267;51.984;20.956;2023-04-10T04:03:28;28.00;;;15.70;;
65597;SDS011;52267;51.984;20.956;2023-04-10T04:05:55;27.00;;;15.50;;
65597;SDS011;52267;51.984;20.956;2023-04-10T04:08:22;32.40;;;18.30;;
65597;SDS011;52267;51.984;20.956;2023-04-10T04:10:49;33.50;;;18.20;;
65597;SDS011;52267;51.984;20.956;2023-04-10T04:13:16;38.80;;;18.30;;
65597;SDS011;52267;51.984;20.956;2023-04-10T04:15:43;35.00;;;18.80;;
65597;SDS011;52267;51.984;20.956;2023-04-10T04:18:10;30.00;;;16.70;;
65597;SDS011;52267;51.984;20.956;2023-04-10T04:20:37;29.00;;;17.50;;
65597;SDS011;52267;51.984;20.956;2023-04-10T04:23:04;29.90;;;16.50;;
65597;SDS011;52267;51.984;20.956;2023-04-10T04:25:31;30.90;;;17.20;;
65597;SDS011;52267;51.984;20.956;2023-04-10T04:27:58;33.30;;;17.80;;
65597;SDS011;52267;51.984;20.956;2023-04-10T04:30:25;30.30;;;17.50;;
65597;SDS011;52267;51.984;20.956;2023-04-10T04:32:52;33.40;;;16.90;;
65597;SDS011;52267;51.984;20.956;2023-04-10T04:35:19;27.70;;;16.60;;
65597;SDS011;52267;51.984;20.956;2023-04-10T04:37:46;27.70;;;16.60;;
65597;SDS011;52267;51.984;20.956;2023-04-10T04:40:13;26.00;;;15.60;;
65597;SDS011;52267;51.984;20.956;2023-04-10T04:42:40;24.60;;;15.60;;
65597;SDS011;52267;51.984;20.956;2023-04-10T04:45:07;26.40;;;15.40;;
65597;SDS011;52267;51.984;20.956;2023-04-10T04:47:35;27.40;;;16.20;;
65597;SDS011;52267;51.984;20.956;2023-04-10T04:50:02;24.90;;;15.20;;
65597;SDS011;52267;51.984;20.956;2023-04-10T04:52:29;29.20;;;17.70;;
65597;SDS011;52267;51.984;20.956;2023-04-10T04:54:57;28.40;;;15.70;;
65597;SDS011;52267;51.984;20.956;2023-04-10T04:57:24;65.30;;;37.80;;
65597;SDS011;52267;51.984;20.956;2023-04-10T04:59:51;82.80;;;47.00;;
65597;SDS011;52267;51.984;20.956;2023-04-10T05:02:18;79.10;;;45.90;;
65597;SDS011;52267;51.984;20.956;2023-04-10T05:04:48;85.20;;;48.40;;
65597;SDS011;52267;51.984;20.956;2023-04-10T05:07:14;80.60;;;45.40;;
65597;SDS011;52267;51.984;20.956;2023-04-10T05:09:41;67.10;;;40.50;;
65597;SDS011;52267;51.984;20.956;2023-04-10T05:12:08;64.10;;;36.00;;
65597;SDS011;52267;51.984;20.956;2023-04-10T05:14:43;48.20;;;28.30;;
65597;SDS011;52267;51.984;20.956;2023-04-10T05:17:11;42.40;;;25.80;;
65597;SDS011;52267;51.984;20.956;2023-04-10T05:19:40;40.80;;;24.60;;
65597;SDS011;52267;51.984;20.956;2023-04-10T05:22:07;35.60;;;21.20;;
65597;SDS011;52267;51.984;20.956;2023-04-10T05:24:34;35.00;;;20.70;;
65597;SDS011;52267;51.984;20.956;2023-04-10T05:27:01;32.10;;;19.70;;
65597;SDS011;52267;51.984;20.956;2023-04-10T05:29:28;29.60;;;19.10;;
65597;SDS011;52267;51.984;20.956;2023-04-10T05:31:55;29.10;;;18.70;;
65597;SDS011;52267;51.984;20.956;2023-04-10T05:34:22;26.10;;;17.60;;
65597;SDS011;52267;51.984;20.956;2023-04-10T05:36:49;28.40;;;16.90;;
65597;SDS011;52267;51.984;20.956;2023-04-10T05:39:16;25.60;;;15.30;;
65597;SDS011;52267;51.984;20.956;2023-04-10T05:41:43;21.90;;;13.70;;
65597;SDS011;52267;51.984;20.956;2023-04-10T05:44:10;21.00;;;13.20;;
65597;SDS011;52267;51.984;20.956;2023-04-10T05:46:37;24.30;;;14.80;;
65597;SDS011;52267;51.984;20.956;2023-04-10T05:49:05;21.00;;;12.60;;
65597;SDS011;52267;51.984;20.956;2023-04-10T05:51:32;21.20;;;12.80;;
65597;SDS011;52267;51.984;20.956;2023-04-10T05:53:59;20.90;;;13.50;;
65597;SDS011;52267;51.984;20.956;2023-04-10T05:56:26;21.80;;;14.10;;
65597;SDS011;52267;51.984;20.956;2023-04-10T05:58:53;24.50;;;14.60;;
65597;SDS011;52267;51.984;20.956;2023-04-10T06:01:20;23.60;;;15.60;;
65597;SDS011;52267;51.984;20.956;2023-04-10T06:03:47;22.80;;;14.30;;
65597;SDS011;52267;51.984;20.956;2023-04-10T06:06:20;20.80;;;12.30;;
65597;SDS011;52267;51.984;20.956;2023-04-10T06:08:48;20.60;;;13.90;;
65597;SDS011;52267;51.984;20.956;2023-04-10T06:11:15;21.00;;;14.50;;
65597;SDS011;52267;51.984;20.956;2023-04-10T06:13:42;21.10;;;14.10;;
65597;SDS011;52267;51.984;20.956;2023-04-10T06:16:09;21.40;;;14.30;;
65597;SDS011;52267;51.984;20.956;2023-04-10T06:18:36;16.70;;;11.90;;
65597;SDS011;52267;51.984;20.956;2023-04-10T06:21:04;18.60;;;12.20;;
65597;SDS011;52267;51.984;20.956;2023-04-10T06:23:31;18.70;;;12.00;;
65597;SDS011;52267;51.984;20.956;2023-04-10T06:25:59;19.40;;;13.20;;
65597;SDS011;52267;51.984;20.956;2023-04-10T06:28:26;20.30;;;12.30;;
65597;SDS011;52267;51.984;20.956;2023-04-10T06:30:54;19.00;;;12.50;;
65597;SDS011;52267;51.984;20.956;2023-04-10T06:33:21;21.00;;;12.80;;
65597;SDS011;52267;51.984;20.956;2023-04-10T06:35:48;19.40;;;12.70;;
65597;SDS011;52267;51.984;20.956;2023-04-10T06:38:17;18.00;;;12.00;;
65597;SDS011;52267;51.984;20.956;2023-04-10T06:40:44;18.30;;;12.50;;
65597;SDS011;52267;51.984;20.956;2023-04-10T06:43:11;12.00;;;6.90;;
65597;SDS011;52267;51.984;20.956;2023-04-10T06:45:38;16.90;;;11.10;;
65597;SDS011;52267;51.984;20.956;2023-04-10T06:48:05;16.10;;;10.60;;
65597;SDS011;52267;51.984;20.956;2023-04-10T06:50:32;16.20;;;10.40;;
65597;SDS011;52267;51.984;20.956;2023-04-10T06:53:00;17.00;;;10.80;;
65597;SDS011;52267;51.984;20.956;2023-04-10T06:55:27;17.70;;;10.80;;
65597;SDS011;52267;51.984;20.956;2023-04-10T06:57:54;15.90;;;10.20;;
65597;SDS011;52267;51.984;20.956;2023-04-10T07:00:22;13.10;;;9.70;;
65597;SDS011;52267;51.984;20.956;2023-04-10T07:02:49;14.90;;;9.30;;
65597;SDS011;52267;51.984;20.956;2023-04-10T07:05:17;15.60;;;10.50;;
65597;SDS011;52267;51.984;20.956;2023-04-10T07:07:44;17.40;;;10.20;;
65597;SDS011;52267;51.984;20.956;2023-04-10T07:10:13;15.30;;;11.20;;
65597;SDS011;52267;51.984;20.956;2023-04-10T07:12:40;13.40;;;9.10;;
65597;SDS011;52267;51.984;20.956;2023-04-10T07:15:07;12.80;;;9.20;;
65597;SDS011;52267;51.984;20.956;2023-04-10T07:17:34;14.80;;;10.70;;
65597;SDS011;52267;51.984;20.956;2023-04-10T07:20:02;14.00;;;9.90;;
65597;SDS011;52267;51.984;20.956;2023-04-10T07:22:29;13.30;;;8.90;;
65597;SDS011;52267;51.984;20.956;2023-04-10T07:24:57;15.10;;;10.40;;
65597;SDS011;52267;51.984;20.956;2023-04-10T07:27:24;13.60;;;9.00;;
65597;SDS011;52267;51.984;20.956;2023-04-10T07:29:53;13.70;;;9.90;;
65597;SDS011;52267;51.984;20.956;2023-04-10T07:32:22;13.50;;;9.60;;
65597;SDS011;52267;51.984;20.956;2023-04-10T07:34:49;14.00;;;10.40;;
65597;SDS011;52267;51.984;20.956;2023-04-10T07:37:16;13.00;;;8.80;;
65597;SDS011;52267;51.984;20.956;2023-04-10T07:39:44;12.90;;;9.30;;
65597;SDS011;52267;51.984;20.956;2023-04-10T07:42:11;13.80;;;9.60;;
65597;SDS011;52267;51.984;20.956;2023-04-10T07:44:38;14.00;;;8.90;;
65597;SDS011;52267;51.984;20.956;2023-04-10T07:47:05;12.80;;;8.60;;
65597;SDS011;52267;51.984;20.956;2023-04-10T07:49:32;13.50;;;8.90;;
65597;SDS011;52267;51.984;20.956;2023-04-10T07:51:59;14.10;;;10.50;;
65597;SDS011;52267;51.984;20.956;2023-04-10T07:54:26;13.20;;;8.60;;
65597;SDS011;52267;51.984;20.956;2023-04-10T07:56:53;10.90;;;7.70;;
65597;SDS011;52267;51.984;20.956;2023-04-10T07:59:20;11.00;;;8.70;;
65597;SDS011;52267;51.984;20.956;2023-04-10T08:01:47;12.90;;;9.30;;
65597;SDS011;52267;51.984;20.956;2023-04-10T08:04:14;13.60;;;10.00;;
65597;SDS011;52267;51.984;20.956;2023-04-10T08:06:41;11.40;;;8.10;;
65597;SDS011;52267;51.984;20.956;2023-04-10T08:09:08;9.50;;;6.50;;
65597;SDS011;52267;51.984;20.956;2023-04-10T08:11:35;10.60;;;8.60;;
65597;SDS011;52267;51.984;20.956;2023-04-10T08:14:03;9.10;;;6.70;;
65597;SDS011;52267;51.984;20.956;2023-04-10T08:16:32;12.20;;;7.40;;
65597;SDS011;52267;51.984;20.956;2023-04-10T08:19:01;10.70;;;6.00;;
65597;SDS011;52267;51.984;20.956;2023-04-10T08:21:30;9.40;;;6.10;;
65597;SDS011;52267;51.984;20.956;2023-04-10T08:23:59;9.20;;;6.10;;
65597;SDS011;52267;51.984;20.956;2023-04-10T08:26:27;8.00;;;5.20;;
65597;SDS011;52267;51.984;20.956;2023-04-10T08:28:57;8.70;;;4.90;;
65597;SDS011;52267;51.984;20.956;2023-04-10T08:31:26;8.70;;;4.90;;
65597;SDS011;52267;51.984;20.956;2023-04-10T08:33:54;6.40;;;4.80;;
65597;SDS011;52267;51.984;20.956;2023-04-10T08:36:21;6.90;;;5.70;;
65597;SDS011;52267;51.984;20.956;2023-04-10T08:38:49;8.00;;;4.90;;
65597;SDS011;52267;51.984;20.956;2023-04-10T08:41:17;7.80;;;4.70;;
65597;SDS011;52267;51.984;20.956;2023-04-10T08:43:45;7.20;;;4.20;;
65597;SDS011;52267;51.984;20.956;2023-04-10T08:46:13;7.10;;;5.00;;
65597;SDS011;52267;51.984;20.956;2023-04-10T08:49:06;7.60;;;4.20;;
65597;SDS011;52267;51.984;20.956;2023-04-10T08:51:51;6.60;;;4.50;;
65597;SDS011;52267;51.984;20.956;2023-04-10T08:54:27;8.30;;;5.20;;
65597;SDS011;52267;51.984;20.956;2023-04-10T08:56:55;7.60;;;4.70;;
65597;SDS011;52267;51.984;20.956;2023-04-10T08:59:24;6.60;;;4.60;;
65597;SDS011;52267;51.984;20.956;2023-04-10T09:01:51;6.00;;;4.30;;
65597;SDS011;52267;51.984;20.956;2023-04-10T09:04:18;9.70;;;4.80;;
65597;SDS011;52267;51.984;20.956;2023-04-10T09:06:46;6.20;;;3.90;;
65597;SDS011;52267;51.984;20.956;2023-04-10T09:09:13;7.00;;;4.20;;
65597;SDS011;52267;51.984;20.956;2023-04-10T09:14:23;7.50;;;4.40;;
65597;SDS011;52267;51.984;20.956;2023-04-10T09:17:11;6.90;;;4.50;;
65597;SDS011;52267;51.984;20.956;2023-04-10T09:19:54;7.30;;;4.80;;
65597;SDS011;52267;51.984;20.956;2023-04-10T09:22:29;6.20;;;4.00;;
65597;SDS011;52267;51.984;20.956;2023-04-10T09:24:59;6.60;;;4.20;;
65597;SDS011;52267;51.984;20.956;2023-04-10T09:27:32;7.00;;;4.40;;
65597;SDS011;52267;51.984;20.956;2023-04-10T09:30:01;4.90;;;3.80;;
65597;SDS011;52267;51.984;20.956;2023-04-10T09:32:42;6.20;;;4.20;;
65597;SDS011;52267;51.984;20.956;2023-04-10T09:35:12;5.40;;;3.70;;
65597;SDS011;52267;51.984;20.956;2023-04-10T09:37:43;7.50;;;5.30;;
65597;SDS011;52267;51.984;20.956;2023-04-10T09:40:22;7.40;;;4.60;;
65597;SDS011;52267;51.984;20.956;2023-04-10T09:42:51;7.10;;;4.70;;
65597;SDS011;52267;51.984;20.956;2023-04-10T09:45:18;7.30;;;5.10;;
65597;SDS011;52267;51.984;20.956;2023-04-10T09:48:06;8.00;;;4.80;;
65597;SDS011;52267;51.984;20.956;2023-04-10T09:50:38;6.90;;;4.70;;
65597;SDS011;52267;51.984;20.956;2023-04-10T09:53:10;5.60;;;4.30;;
65597;SDS011;52267;51.984;20.956;2023-04-10T09:55:40;6.20;;;4.20;;
65597;SDS011;52267;51.984;20.956;2023-04-10T09:58:08;8.20;;;6.00;;
65597;SDS011;52267;51.984;20.956;2023-04-10T10:03:08;6.50;;;4.90;;
65597;SDS011;52267;51.984;20.956;2023-04-10T10:05:39;8.20;;;5.40;;
65597;SDS011;52267;51.984;20.956;2023-04-10T10:08:09;7.50;;;5.10;;
65597;SDS011;52267;51.984;20.956;2023-04-10T10:10:50;7.60;;;5.00;;
65597;SDS011;52267;51.984;20.956;2023-04-10T10:16:14;5.50;;;3.90;;
65597;SDS011;52267;51.984;20.956;2023-04-10T10:19:12;7.00;;;4.50;;
65597;SDS011;52267;51.984;20.956;2023-04-10T10:21:46;9.10;;;4.90;;
65597;SDS011;52267;51.984;20.956;2023-04-10T10:24:14;8.20;;;5.10;;
65597;SDS011;52267;51.984;20.956;2023-04-10T10:26:42;6.30;;;3.60;;
65597;SDS011;52267;51.984;20.956;2023-04-10T10:29:10;8.00;;;4.40;;
65597;SDS011;52267;51.984;20.956;2023-04-10T10:31:39;5.30;;;3.70;;
65597;SDS011;52267;51.984;20.956;2023-04-10T10:34:06;5.40;;;4.00;;
65597;SDS011;52267;51.984;20.956;2023-04-10T10:36:35;6.10;;;4.50;;
65597;SDS011;52267;51.984;20.956;2023-04-10T10:47:39;7.90;;;5.00;;
65597;SDS011;52267;51.984;20.956;2023-04-10T10:50:09;6.20;;;4.10;;
65597;SDS011;52267;51.984;20.956;2023-04-10T10:52:40;5.90;;;3.50;;
65597;SDS011;52267;51.984;20.956;2023-04-10T10:57:52;6.00;;;3.40;;
65597;SDS011;52267;51.984;20.956;2023-04-10T11:00:22;5.50;;;4.10;;
65597;SDS011;52267;51.984;20.956;2023-04-10T11:05:52;7.80;;;4.00;;
65597;SDS011;52267;51.984;20.956;2023-04-10T11:08:35;5.50;;;3.60;;
65597;SDS011;52267;51.984;20.956;2023-04-10T11:11:14;4.80;;;3.60;;
65597;SDS011;52267;51.984;20.956;2023-04-10T11:16:18;5.80;;;3.90;;
65597;SDS011;52267;51.984;20.956;2023-04-10T11:21:22;6.20;;;4.10;;
65597;SDS011;52267;51.984;20.956;2023-04-10T11:29:03;6.20;;;3.90;;
65597;SDS011;52267;51.984;20.956;2023-04-10T11:31:32;8.90;;;4.40;;
65597;SDS011;52267;51.984;20.956;2023-04-10T11:34:02;7.00;;;4.40;;
65597;SDS011;52267;51.984;20.956;2023-04-10T11:36:32;7.30;;;4.20;;
65597;SDS011;52267;51.984;20.956;2023-04-10T11:39:02;5.70;;;4.10;;
65597;SDS011;52267;51.984;20.956;2023-04-10T11:41:35;7.40;;;4.20;;
65597;SDS011;52267;51.984;20.956;2023-04-10T11:44:07;5.30;;;3.90;;
65597;SDS011;52267;51.984;20.956;2023-04-10T11:46:40;5.10;;;4.00;;
65597;SDS011;52267;51.984;20.956;2023-04-10T11:49:18;7.70;;;3.80;;
65597;SDS011;52267;51.984;20.956;2023-04-10T11:51:48;5.20;;;3.90;;
65597;SDS011;52267;51.984;20.956;2023-04-10T11:57:07;8.50;;;4.00;;
65597;SDS011;52267;51.984;20.956;2023-04-10T11:59:35;5.80;;;3.70;;
65597;SDS011;52267;51.984;20.956;2023-04-10T12:02:13;4.60;;;3.60;;
65597;SDS011;52267;51.984;20.956;2023-04-10T12:04:41;6.60;;;3.70;;
65597;SDS011;52267;51.984;20.956;2023-04-10T12:07:09;6.90;;;3.70;;
65597;SDS011;52267;51.984;20.956;2023-04-10T12:09:36;6.50;;;3.70;;
65597;SDS011;52267;51.984;20.956;2023-04-10T12:12:05;5.80;;;4.10;;
65597;SDS011;52267;51.984;20.956;2023-04-10T12:14:38;5.00;;;3.40;;
65597;SDS011;52267;51.984;20.956;2023-04-10T12:17:08;5.00;;;3.50;;
65597;SDS011;52267;51.984;20.956;2023-04-10T12:19:37;6.40;;;4.20;;
65597;SDS011;52267;51.984;20.956;2023-04-10T12:22:05;7.40;;;4.00;;
65597;SDS011;52267;51.984;20.956;2023-04-10T12:24:49;6.30;;;4.00;;
65597;SDS011;52267;51.984;20.956;2023-04-10T12:27:26;6.30;;;3.70;;
65597;SDS011;52267;51.984;20.956;2023-04-10T12:29:56;5.60;;;3.40;;
65597;SDS011;52267;51.984;20.956;2023-04-10T12:32:24;5.10;;;3.40;;
65597;SDS011;52267;51.984;20.956;2023-04-10T12:34:54;6.30;;;3.70;;
65597;SDS011;52267;51.984;20.956;2023-04-10T12:40:20;7.00;;;3.70;;
65597;SDS011;52267;51.984;20.956;2023-04-10T12:42:47;8.10;;;3.60;;
65597;SDS011;52267;51.984;20.956;2023-04-10T12:45:14;5.60;;;4.20;;
65597;SDS011;52267;51.984;20.956;2023-04-10T12:47:45;6.80;;;3.70;;
65597;SDS011;52267;51.984;20.956;2023-04-10T12:50:19;5.30;;;3.60;;
65597;SDS011;52267;51.984;20.956;2023-04-10T12:53:13;5.40;;;3.50;;
65597;SDS011;52267;51.984;20.956;2023-04-10T12:55:40;6.60;;;3.80;;
65597;SDS011;52267;51.984;20.956;2023-04-10T12:58:15;6.10;;;3.80;;
65597;SDS011;52267;51.984;20.956;2023-04-10T13:00:46;7.30;;;3.80;;
65597;SDS011;52267;51.984;20.956;2023-04-10T13:03:14;7.50;;;3.90;;
65597;SDS011;52267;51.984;20.956;2023-04-10T13:05:41;5.20;;;3.40;;
65597;SDS011;52267;51.984;20.956;2023-04-10T13:08:08;6.90;;;4.00;;
65597;SDS011;52267;51.984;20.956;2023-04-10T13:10:35;6.00;;;3.80;;
65597;SDS011;52267;51.984;20.956;2023-04-10T13:13:03;5.30;;;3.50;;
65597;SDS011;52267;51.984;20.956;2023-04-10T13:15:33;6.60;;;3.90;;
65597;SDS011;52267;51.984;20.956;2023-04-10T13:18:00;5.80;;;3.90;;
65597;SDS011;52267;51.984;20.956;2023-04-10T13:20:28;5.70;;;3.70;;
65597;SDS011;52267;51.984;20.956;2023-04-10T13:22:55;6.50;;;3.80;;
65597;SDS011;52267;51.984;20.956;2023-04-10T13:25:22;6.90;;;3.90;;
65597;SDS011;52267;51.984;20.956;2023-04-10T13:27:49;5.20;;;3.60;;
65597;SDS011;52267;51.984;20.956;2023-04-10T13:30:16;6.90;;;3.80;;
65597;SDS011;52267;51.984;20.956;2023-04-10T13:32:43;7.50;;;4.00;;
65597;SDS011;52267;51.984;20.956;2023-04-10T13:35:10;5.80;;;3.50;;
65597;SDS011;52267;51.984;20.956;2023-04-10T13:37:37;7.10;;;3.50;;
65597;SDS011;52267;51.984;20.956;2023-04-10T13:40:05;5.30;;;4.10;;
65597;SDS011;52267;51.984;20.956;2023-04-10T13:42:32;5.80;;;4.50;;
65597;SDS011;52267;51.984;20.956;2023-04-10T13:44:59;9.10;;;4.40;;
65597;SDS011;52267;51.984;20.956;2023-04-10T13:47:27;5.70;;;4.30;;
65597;SDS011;52267;51.984;20.956;2023-04-10T13:49:54;6.70;;;4.40;;
65597;SDS011;52267;51.984;20.956;2023-04-10T13:52:21;6.90;;;4.60;;
65597;SDS011;52267;51.984;20.956;2023-04-10T13:54:48;7.10;;;4.20;;
65597;SDS011;52267;51.984;20.956;2023-04-10T13:57:15;5.40;;;4.20;;
65597;SDS011;52267;51.984;20.956;2023-04-10T13:59:42;7.20;;;5.00;;
65597;SDS011;52267;51.984;20.956;2023-04-10T14:02:09;8.30;;;4.40;;
65597;SDS011;52267;51.984;20.956;2023-04-10T14:04:36;7.20;;;4.80;;
65597;SDS011;52267;51.984;20.956;2023-04-10T14:07:03;8.80;;;4.10;;
65597;SDS011;52267;51.984;20.956;2023-04-10T14:09:30;5.00;;;3.70;;
65597;SDS011;52267;51.984;20.956;2023-04-10T14:11:57;12.20;;;4.30;;
65597;SDS011;52267;51.984;20.956;2023-04-10T14:14:24;6.00;;;4.10;;
65597;SDS011;52267;51.984;20.956;2023-04-10T14:16:51;6.20;;;3.70;;
65597;SDS011;52267;51.984;20.956;2023-04-10T14:19:18;5.50;;;3.70;;
65597;SDS011;52267;51.984;20.956;2023-04-10T14:21:45;6.70;;;4.20;;
65597;SDS011;52267;51.984;20.956;2023-04-10T14:24:12;5.70;;;3.70;;
65597;SDS011;52267;51.984;20.956;2023-04-10T14:26:39;6.60;;;3.70;;
65597;SDS011;52267;51.984;20.956;2023-04-10T14:29:06;4.20;;;3.60;;
65597;SDS011;52267;51.984;20.956;2023-04-10T14:31:34;5.10;;;3.40;;
65597;SDS011;52267;51.984;20.956;2023-04-10T14:34:01;6.00;;;3.80;;
65597;SDS011;52267;51.984;20.956;2023-04-10T14:36:28;4.30;;;3.30;;
65597;SDS011;52267;51.984;20.956;2023-04-10T14:38:58;5.00;;;3.50;;
65597;SDS011;52267;51.984;20.956;2023-04-10T14:41:25;5.80;;;3.90;;
65597;SDS011;52267;51.984;20.956;2023-04-10T14:43:54;5.80;;;3.50;;
65597;SDS011;52267;51.984;20.956;2023-04-10T14:46:21;5.50;;;3.60;;
65597;SDS011;52267;51.984;20.956;2023-04-10T14:48:48;5.10;;;3.30;;
65597;SDS011;52267;51.984;20.956;2023-04-10T14:51:15;5.20;;;4.10;;
65597;SDS011;52267;51.984;20.956;2023-04-10T14:53:42;5.70;;;3.50;;
65597;SDS011;52267;51.984;20.956;2023-04-10T14:56:12;6.10;;;3.70;;
65597;SDS011;52267;51.984;20.956;2023-04-10T14:58:41;6.30;;;3.50;;
65597;SDS011;52267;51.984;20.956;2023-04-10T15:01:09;7.30;;;4.20;;
65597;SDS011;52267;51.984;20.956;2023-04-10T15:03:37;7.00;;;4.10;;
65597;SDS011;52267;51.984;20.956;2023-04-10T15:06:05;8.50;;;3.70;;
65597;SDS011;52267;51.984;20.956;2023-04-10T15:08:32;6.60;;;3.60;;
65597;SDS011;52267;51.984;20.956;2023-04-10T15:10:59;5.60;;;4.00;;
65597;SDS011;52267;51.984;20.956;2023-04-10T15:13:27;6.70;;;3.50;;
65597;SDS011;52267;51.984;20.956;2023-04-10T15:15:54;6.60;;;3.60;;
65597;SDS011;52267;51.984;20.956;2023-04-10T15:18:22;4.70;;;2.90;;
65597;SDS011;52267;51.984;20.956;2023-04-10T15:20:51;4.80;;;3.30;;
65597;SDS011;52267;51.984;20.956;2023-04-10T15:23:18;5.40;;;3.50;;